Yucca, AZ (86438)

8:48 AM MST on September 01, 2015 (GMT -0700)
Chrysler Arizona Proving Ground | | Change Station
CLOSE
Current Station
Personal Weather Station
Location: Yucca, AZ
Elevation: 1890 ft
Nearby Weather Stations

Elev 1890 ft 34.88 °N, 114.14 °W | Updated 1 minute ago

Clear
Clear
86.3 °F
Feels Like 85 °F
N
16.9
Wind Variable Wind from SSE
Gusts 19.2 mph

Today
High -- | Low -- °F
--% Chance of Precip.
Yesterday
High -- | Low -- °F
Precip. -- in
6:09 AM 7:03 PM
Waning Gibbous, 88% visible
Pressure 29.77 in
Visibility 10.0 miles
Clouds Clear
Heat Index 85 °F
Dew Point 57 °F
Humidity 36%
Rainfall 0.00 in
Snow Depth Not available.
UV 2 out of 12
Pollen 6.00 out of 12
Air Quality Not available.
Flu Activity Not available.
METAR KEED 011456Z AUTO 18008KT 10SM CLR 33/14 A2987 RMK AO2 SLP079 T03280139 51016
Pressure 29.77 in
Visibility 10.0 miles
Clouds Clear
Heat Index 85 °F
Dew Point 57 °F
Humidity 36%
Rainfall 0.00 in
Snow Depth Not available.
UV 2 out of 12
Pollen 6.00 out of 12
Air Quality Not available.
Flu Activity Not available.
METAR KEED 011456Z AUTO 18008KT 10SM CLR 33/14 A2987 RMK AO2 SLP079 T03280139 51016

10-Day Weather Forecast

×

Almanac

Astronomy

Sep. 01, 2015 Rise Set
Actual Time
Civil Twilight
Nautical Twilight
Astronomical Twilight
Moon
Length of Visible Light
Length of Day
Tomorrow will be .
, % of the Moon is Illuminated

Today's Extremes

State Highs State Lows

Community

WunderPhotos

Upload Photos

1,851,538 photos uploaded!

WunderBlogs® & News

Nearby

Air Quality

  Air Quality AQ Index Pollutant
Not available.

Snow Depth

Station Depth Elevation

Earthquake Activity

City Distance Mag. Time & Date
Minimum magnitude displayed is 2.5.

Coastal Water Temperatures

Place Temperature

Stations

Nearby Weather Stations

Station Location Temp. Windchill Dew Point Humidity Wind Precip. Elev Updated Type